Time;durP1;ratioP1;P1;durP2;ratioP2;P2;SDS_P1;SDS_P2;PMS_P1;PMS_P2;Temp;Humidity;BMP_temperature;BMP_pressure;BME280_temperature;BME280_humidity;BME280_pressure;Samples;Min_cycle;Max_cycle;Signal;HPM_P1;HPM_P2
2023/01/13 00:02:07;;;;;;;;;;;9.20;99.90;;;;;;5054366;28;19921;-65
2023/01/13 00:04:33;;;;;;;;;;;9.20;99.90;;;;;;5036540;28;19921;-65
2023/01/13 00:06:59;;;;;;;;;;;9.10;99.90;;;;;;5054678;28;19975;-66
2023/01/13 00:09:24;;;;;;;;;;;9.10;99.90;;;;;;5054440;28;19928;-64
2023/01/13 00:11:50;;;;;;;;;;;9.10;99.90;;;;;;5053628;28;19921;-65
2023/01/13 00:14:16;;;;;;;;;;;9.00;99.90;;;;;;5052226;28;20358;-65
2023/01/13 00:16:42;;;;;;;;;;;9.00;99.90;;;;;;5053897;28;19924;-64
2023/01/13 00:19:08;;;;;;;;;;;8.90;99.90;;;;;;5053727;28;19927;-65
2023/01/13 00:21:34;;;;;;;;;;;8.90;99.90;;;;;;5053275;28;20274;-65
2023/01/13 00:24:00;;;;;;;;;;;8.90;99.90;;;;;;5053694;28;19921;-64
2023/01/13 00:26:26;;;;;;;;;;;8.80;99.90;;;;;;5054293;28;20334;-64
2023/01/13 00:28:56;;;;;;;;;;;8.80;99.90;;;;;;5054502;28;20007;-65
2023/01/13 00:31:22;;;;;;;;;;;8.70;99.90;;;;;;5052915;28;19928;-65
2023/01/13 00:33:48;;;;;;;;;;;8.70;99.90;;;;;;5053517;28;19921;-66
2023/01/13 00:36:14;;;;;;;;;;;8.70;99.90;;;;;;5053416;28;20011;-68
2023/01/13 00:38:41;;;;;;;;;;;8.60;99.90;;;;;;5054063;28;19928;-65
2023/01/13 00:41:17;;;;;;;;;;;8.60;99.90;;;;;;5053647;28;19975;-65
2023/01/13 00:43:43;;;;;;;;;;;8.50;99.90;;;;;;5053078;28;19943;-65
2023/01/13 00:46:09;;;;;;;;;;;8.50;99.90;;;;;;5054060;28;19921;-65
2023/01/13 00:48:35;;;;;;;;;;;8.50;99.90;;;;;;5053721;28;20003;-67
2023/01/13 00:51:02;;;;;;;;;;;8.40;99.90;;;;;;5053689;28;20028;-65
2023/01/13 00:53:28;;;;;;;;;;;8.40;99.90;;;;;;5053704;28;19924;-65
2023/01/13 00:56:00;;;;;;;;;;;8.40;99.90;;;;;;5053987;28;19927;-65
2023/01/13 00:58:26;;;;;;;;;;;8.30;99.90;;;;;;5053493;28;19991;-65
2023/01/13 01:00:52;;;;;;;;;;;8.40;99.90;;;;;;5053826;28;19927;-64
2023/01/13 01:03:18;;;;;;;;;;;8.30;99.90;;;;;;5053515;28;19921;-65
2023/01/13 01:05:43;;;;;;;;;;;8.30;99.90;;;;;;5053066;28;19932;-65
2023/01/13 01:08:09;;;;;;;;;;;8.30;99.90;;;;;;5053814;28;19921;-65
2023/01/13 01:10:34;;;;;;;;;;;8.30;99.90;;;;;;5053065;28;20380;-65
2023/01/13 01:13:00;;;;;;;;;;;8.20;99.90;;;;;;5052234;28;19924;-65
2023/01/13 01:15:26;;;;;;;;;;;8.20;99.90;;;;;;5052184;28;19920;-65
2023/01/13 01:17:51;;;;;;;;;;;8.20;99.90;;;;;;5053774;28;19942;-65
2023/01/13 01:20:17;;;;;;;;;;;8.10;99.90;;;;;;5053255;28;19928;-65
2023/01/13 01:22:42;;;;;;;;;;;8.10;99.90;;;;;;5052054;28;19921;-65
2023/01/13 01:25:08;;;;;;;;;;;8.10;99.90;;;;;;5053392;28;19921;-65
2023/01/13 01:27:34;;;;;;;;;;;8.10;99.90;;;;;;5053104;28;20370;-64
2023/01/13 01:29:59;;;;;;;;;;;8.10;99.90;;;;;;5053803;28;19965;-64
2023/01/13 01:32:25;;;;;;;;;;;8.10;99.90;;;;;;5052045;28;20333;-64
2023/01/13 01:34:50;;;;;;;;;;;8.10;99.90;;;;;;5053214;28;19925;-64
2023/01/13 01:37:16;;;;;;;;;;;8.00;99.90;;;;;;5053322;28;19921;-65
2023/01/13 01:39:41;;;;;;;;;;;8.10;99.90;;;;;;5051761;28;20475;-64
2023/01/13 01:45:01;;;;;;;;;;;8.00;99.90;;;;;;5052970;28;20011;-64
2023/01/13 01:47:29;;;;;;;;;;;8.00;99.90;;;;;;5052669;28;19928;-64
2023/01/13 01:49:56;;;;;;;;;;;8.00;99.90;;;;;;5051947;28;19921;-64
2023/01/13 01:52:29;;;;;;;;;;;8.00;99.90;;;;;;5052829;28;19920;-64
2023/01/13 01:54:57;;;;;;;;;;;8.00;99.90;;;;;;5052738;28;19924;-64
2023/01/13 01:57:29;;;;;;;;;;;8.00;99.90;;;;;;5052615;28;19974;-65
2023/01/13 01:59:56;;;;;;;;;;;8.00;99.90;;;;;;5052978;28;19921;-65
2023/01/13 02:02:22;;;;;;;;;;;8.00;99.90;;;;;;5052652;28;19924;-65
2023/01/13 02:04:50;;;;;;;;;;;8.00;99.90;;;;;;5034911;28;19921;-65
2023/01/13 02:07:17;;;;;;;;;;;8.00;99.90;;;;;;5052716;28;19928;-65
2023/01/13 02:09:43;;;;;;;;;;;8.00;99.90;;;;;;5034934;28;19925;-65
2023/01/13 02:14:53;;;;;;;;;;;8.00;99.90;;;;;;5052772;28;20038;-64
2023/01/13 02:17:37;;;;;;;;;;;8.00;99.90;;;;;;5051539;28;19956;-66
2023/01/13 02:20:02;;;;;;;;;;;8.00;99.90;;;;;;5052524;28;19920;-65
2023/01/13 02:22:28;;;;;;;;;;;8.00;99.90;;;;;;5052263;28;19920;-66
2023/01/13 02:25:12;;;;;;;;;;;8.00;99.90;;;;;;5052073;28;19921;-64
2023/01/13 02:27:57;;;;;;;;;;;8.00;99.90;;;;;;5050700;28;19921;-65
2023/01/13 02:33:59;;;;;;;;;;;8.10;99.90;;;;;;4990100;28;19922;-64
2023/01/13 02:36:25;;;;;;;;;;;8.00;99.90;;;;;;5052333;28;19967;-64
2023/01/13 02:38:53;;;;;;;;;;;8.00;99.90;;;;;;5050984;28;19928;-65
2023/01/13 02:44:19;;;;;;;;;;;8.00;99.90;;;;;;5052297;28;19928;-64
2023/01/13 02:46:48;;;;;;;;;;;8.00;99.90;;;;;;5050191;28;20443;-65
2023/01/13 02:49:26;;;;;;;;;;;8.00;99.90;;;;;;5052177;28;19920;-65
2023/01/13 02:51:53;;;;;;;;;;;8.00;99.90;;;;;;5051828;28;19927;-65
2023/01/13 02:54:24;;;;;;;;;;;7.90;99.90;;;;;;5050980;28;19978;-65
2023/01/13 02:56:52;;;;;;;;;;;8.00;99.90;;;;;;5051710;28;19928;-65
2023/01/13 02:59:18;;;;;;;;;;;7.90;99.90;;;;;;5050846;28;19969;-65
2023/01/13 03:01:44;;;;;;;;;;;7.90;99.90;;;;;;5050618;28;19928;-67
2023/01/13 03:04:13;;;;;;;;;;;7.90;99.90;;;;;;5052035;28;19965;-66
2023/01/13 03:06:58;;;;;;;;;;;7.90;99.90;;;;;;5049840;28;20405;-66
2023/01/13 03:09:28;;;;;;;;;;;8.00;99.90;;;;;;5051887;28;20293;-65
2023/01/13 03:11:54;;;;;;;;;;;8.00;99.90;;;;;;5051730;28;19916;-65
2023/01/13 03:14:34;;;;;;;;;;;8.10;99.90;;;;;;5050761;28;19928;-65
2023/01/13 03:17:05;;;;;;;;;;;8.10;99.90;;;;;;5051602;28;19927;-66
2023/01/13 03:19:41;;;;;;;;;;;8.10;99.90;;;;;;5050602;28;19925;-65
2023/01/13 03:22:07;;;;;;;;;;;8.10;99.90;;;;;;5050596;28;19921;-66
2023/01/13 03:24:38;;;;;;;;;;;8.00;99.90;;;;;;5051609;28;19928;-65
2023/01/13 03:27:03;;;;;;;;;;;8.00;99.90;;;;;;5051561;28;19920;-67
2023/01/13 03:29:35;;;;;;;;;;;8.00;99.90;;;;;;5051541;28;19920;-65
2023/01/13 03:32:08;;;;;;;;;;;8.00;99.90;;;;;;5049615;28;20374;-65
2023/01/13 03:34:37;;;;;;;;;;;8.00;99.90;;;;;;5051414;28;20286;-66
2023/01/13 03:37:04;;;;;;;;;;;8.00;99.90;;;;;;5051418;28;19983;-64
2023/01/13 03:39:31;;;;;;;;;;;7.90;99.90;;;;;;5051606;28;19951;-64
2023/01/13 03:42:03;;;;;;;;;;;7.90;99.90;;;;;;5050264;28;19921;-64
2023/01/13 03:44:32;;;;;;;;;;;8.00;99.90;;;;;;5050633;28;20424;-64
2023/01/13 03:47:04;;;;;;;;;;;8.00;99.90;;;;;;5050095;28;19960;-66
2023/01/13 03:49:34;;;;;;;;;;;8.00;99.90;;;;;;5053288;28;19927;-66
2023/01/13 03:52:03;;;;;;;;;;;8.00;99.90;;;;;;5054730;28;19971;-66
2023/01/13 03:54:30;;;;;;;;;;;8.10;99.90;;;;;;5054280;28;20362;-66
2023/01/13 03:57:01;;;;;;;;;;;8.10;99.90;;;;;;5054707;28;20354;-66
2023/01/13 03:59:29;;;;;;;;;;;8.10;99.90;;;;;;5054226;28;19921;-66
2023/01/13 04:02:00;;;;;;;;;;;8.10;99.90;;;;;;5053649;28;20289;-67
2023/01/13 04:04:29;;;;;;;;;;;8.10;99.90;;;;;;5055039;28;19970;-67
2023/01/13 04:07:14;;;;;;;;;;;8.10;99.90;;;;;;5053204;28;19928;-64
2023/01/13 04:09:51;;;;;;;;;;;8.10;99.90;;;;;;5053007;28;20015;-65
2023/01/13 04:12:22;;;;;;;;;;;8.10;99.90;;;;;;5054736;28;19997;-65
2023/01/13 04:14:48;;;;;;;;;;;8.10;99.90;;;;;;5054555;28;19921;-65
2023/01/13 04:17:14;;;;;;;;;;;8.00;99.90;;;;;;5054782;28;19921;-65
2023/01/13 04:19:40;;;;;;;;;;;8.00;99.90;;;;;;5054779;28;19975;-65
2023/01/13 04:22:05;;;;;;;;;;;8.00;99.90;;;;;;5054244;28;19999;-64
2023/01/13 04:24:31;;;;;;;;;;;8.00;99.90;;;;;;5053508;28;19928;-65
2023/01/13 04:26:57;;;;;;;;;;;7.90;99.90;;;;;;5052968;28;19921;-65
2023/01/13 04:29:22;;;;;;;;;;;8.00;99.90;;;;;;5053322;28;19927;-66
2023/01/13 04:31:48;;;;;;;;;;;7.90;99.90;;;;;;5054372;28;20051;-64
2023/01/13 04:34:13;;;;;;;;;;;7.90;99.90;;;;;;5053222;28;19921;-64
2023/01/13 04:36:39;;;;;;;;;;;8.00;99.90;;;;;;5053381;28;19920;-64
2023/01/13 04:39:04;;;;;;;;;;;7.90;99.90;;;;;;5054273;28;20004;-64
2023/01/13 04:41:56;;;;;;;;;;;7.90;99.90;;;;;;5054148;28;20373;-65
2023/01/13 04:44:18;;;;;;;;;;;8.00;99.90;;;;;;5053954;28;19928;-65
2023/01/13 04:46:45;;;;;;;;;;;8.00;99.90;;;;;;5053918;28;19924;-65
2023/01/13 04:49:10;;;;;;;;;;;8.00;99.90;;;;;;5053863;28;19947;-65
2023/01/13 04:51:36;;;;;;;;;;;8.00;99.90;;;;;;5053991;28;19920;-65
2023/01/13 04:54:01;;;;;;;;;;;8.00;99.90;;;;;;5035886;28;19921;-65
2023/01/13 04:56:27;;;;;;;;;;;8.10;99.90;;;;;;5052883;28;19921;-65
2023/01/13 04:58:52;;;;;;;;;;;8.00;99.90;;;;;;5053571;28;20294;-65
2023/01/13 05:01:19;;;;;;;;;;;8.10;99.90;;;;;;5053366;28;20069;-65
2023/01/13 05:03:45;;;;;;;;;;;8.10;99.90;;;;;;5053861;28;19967;-65
2023/01/13 05:06:11;;;;;;;;;;;8.10;99.90;;;;;;5052229;28;19924;-65
2023/01/13 05:08:36;;;;;;;;;;;8.10;99.90;;;;;;5053886;28;19927;-65
2023/01/13 05:16:58;;;;;;;;;;;8.10;99.90;;;;;;5053401;28;19920;-67
2023/01/13 05:19:16;;;;;;;;;;;8.30;99.90;;;;;;5053639;28;19928;-64
2023/01/13 05:27:10;;;;;;;;;;;8.30;99.90;;;;;;5051887;28;19925;-65
2023/01/13 05:29:36;;;;;;;;;;;8.30;99.90;;;;;;5053444;28;19982;-65
2023/01/13 05:32:03;;;;;;;;;;;8.30;99.90;;;;;;5035097;28;20395;-66
2023/01/13 05:34:30;;;;;;;;;;;8.30;99.90;;;;;;5053413;28;19921;-66
2023/01/13 05:36:56;;;;;;;;;;;8.30;99.90;;;;;;5051868;28;19971;-65
2023/01/13 05:39:21;;;;;;;;;;;8.30;99.90;;;;;;5053220;28;19925;-66
2023/01/13 05:44:31;;;;;;;;;;;8.40;99.90;;;;;;5053067;28;20023;-65
2023/01/13 05:46:57;;;;;;;;;;;8.40;99.90;;;;;;5051649;28;19968;-65
2023/01/13 05:49:22;;;;;;;;;;;8.30;99.90;;;;;;5051793;28;20358;-65
2023/01/13 05:51:48;;;;;;;;;;;8.40;99.90;;;;;;5052938;28;19920;-65
2023/01/13 05:54:13;;;;;;;;;;;8.40;99.90;;;;;;5051597;28;19920;-65
2023/01/13 05:56:39;;;;;;;;;;;8.40;99.90;;;;;;5052877;28;19928;-66
2023/01/13 05:59:06;;;;;;;;;;;8.40;99.90;;;;;;5052486;28;19920;-66
2023/01/13 06:01:31;;;;;;;;;;;8.40;99.90;;;;;;5052666;28;19997;-66
2023/01/13 06:03:57;;;;;;;;;;;8.40;99.90;;;;;;5051515;28;20015;-68
2023/01/13 06:06:22;;;;;;;;;;;8.40;99.90;;;;;;5051510;28;19920;-66
2023/01/13 06:08:48;;;;;;;;;;;8.40;99.90;;;;;;5052656;28;19955;-66
2023/01/13 06:11:14;;;;;;;;;;;8.40;99.90;;;;;;5052034;28;19928;-66
2023/01/13 06:13:39;;;;;;;;;;;8.40;99.90;;;;;;5050522;28;20440;-66
2023/01/13 06:16:05;;;;;;;;;;;8.40;99.90;;;;;;5051228;28;19971;-65
2023/01/13 06:18:30;;;;;;;;;;;8.40;99.90;;;;;;5051193;28;19944;-65
2023/01/13 06:20:56;;;;;;;;;;;8.40;99.90;;;;;;5034662;28;19921;-65
2023/01/13 06:23:22;;;;;;;;;;;8.30;99.90;;;;;;5051188;28;19921;-66
2023/01/13 06:25:55;;;;;;;;;;;8.30;99.90;;;;;;5052234;28;20251;-66
2023/01/13 06:28:20;;;;;;;;;;;8.30;99.90;;;;;;5050856;28;19947;-66
2023/01/13 06:30:51;;;;;;;;;;;8.30;99.90;;;;;;5052687;28;19924;-66
2023/01/13 06:33:19;;;;;;;;;;;8.30;99.90;;;;;;5051102;28;19921;-65
2023/01/13 06:35:47;;;;;;;;;;;8.30;99.90;;;;;;5051416;28;20377;-65
2023/01/13 06:38:17;;;;;;;;;;;8.30;99.90;;;;;;5050800;28;19920;-66
2023/01/13 06:40:44;;;;;;;;;;;8.30;99.90;;;;;;5034679;28;19928;-66
2023/01/13 06:43:16;;;;;;;;;;;8.40;99.90;;;;;;5049807;28;19929;-67
2023/01/13 06:45:51;;;;;;;;;;;8.40;99.90;;;;;;5051700;28;20389;-64
2023/01/13 06:48:18;;;;;;;;;;;8.30;99.90;;;;;;5051537;28;20017;-68
2023/01/13 06:50:44;;;;;;;;;;;8.30;99.90;;;;;;5052358;28;20270;-67
2023/01/13 06:53:11;;;;;;;;;;;8.20;99.90;;;;;;5033696;28;19925;-67
2023/01/13 06:55:37;;;;;;;;;;;8.20;99.90;;;;;;5052348;28;19999;-66
2023/01/13 06:58:03;;;;;;;;;;;8.10;99.90;;;;;;5050811;28;19947;-67
2023/01/13 07:00:31;;;;;;;;;;;8.10;99.90;;;;;;5033968;28;19920;-67
2023/01/13 07:03:13;;;;;;;;;;;8.00;99.90;;;;;;5051217;28;20358;-66
2023/01/13 07:05:40;;;;;;;;;;;8.00;99.90;;;;;;5052118;28;20063;-65
2023/01/13 07:08:07;;;;;;;;;;;7.90;99.90;;;;;;5051412;28;20289;-67
2023/01/13 07:10:33;;;;;;;;;;;7.90;99.90;;;;;;5051565;28;20516;-65
2023/01/13 07:15:51;;;;;;;;;;;7.80;99.90;;;;;;5051712;28;19921;-66
2023/01/13 07:18:16;;;;;;;;;;;7.80;99.90;;;;;;5051540;28;20329;-65
2023/01/13 07:20:42;;;;;;;;;;;7.80;99.90;;;;;;5051920;28;19970;-64
2023/01/13 07:23:07;;;;;;;;;;;7.80;99.90;;;;;;5050490;28;20290;-66
2023/01/13 07:25:33;;;;;;;;;;;7.80;99.90;;;;;;5054981;28;19990;-65
2023/01/13 07:27:59;;;;;;;;;;;7.70;99.90;;;;;;5038159;28;20343;-65
2023/01/13 07:30:24;;;;;;;;;;;7.70;99.90;;;;;;5054009;28;19921;-65
2023/01/13 07:32:50;;;;;;;;;;;7.60;99.90;;;;;;5055338;28;20007;-66
2023/01/13 07:35:20;;;;;;;;;;;7.60;99.90;;;;;;5055085;28;19921;-66
2023/01/13 07:37:47;;;;;;;;;;;7.60;99.90;;;;;;5056435;28;19920;-66
2023/01/13 07:40:13;;;;;;;;;;;7.60;99.90;;;;;;5054503;28;19925;-66
2023/01/13 07:45:22;;;;;;;;;;;7.60;99.90;;;;;;5054405;28;20015;-66
2023/01/13 07:47:49;;;;;;;;;;;7.50;99.90;;;;;;5053899;28;20007;-66
2023/01/13 07:50:15;;;;;;;;;;;7.50;99.90;;;;;;5053410;28;20246;-65
2023/01/13 07:52:41;;;;;;;;;;;7.40;99.90;;;;;;5055166;28;20011;-64
2023/01/13 07:55:06;;;;;;;;;;;7.40;99.90;;;;;;5053715;28;20321;-65
2023/01/13 07:57:32;;;;;;;;;;;7.40;99.90;;;;;;5053264;28;20023;-65
2023/01/13 07:59:57;;;;;;;;;;;7.40;99.90;;;;;;5053739;28;20371;-67
2023/01/13 08:02:24;;;;;;;;;;;7.40;99.90;;;;;;5036705;28;19920;-67
2023/01/13 08:04:50;;;;;;;;;;;7.40;99.90;;;;;;5021172;28;19928;-67
2023/01/13 08:07:15;;;;;;;;;;;7.40;99.90;;;;;;5053358;28;19920;-66
2023/01/13 08:09:41;;;;;;;;;;;7.50;99.90;;;;;;5037597;28;20008;-65
2023/01/13 08:14:52;;;;;;;;;;;7.50;99.90;;;;;;5054031;28;20428;-66
2023/01/13 08:17:18;;;;;;;;;;;7.50;99.90;;;;;;5054628;28;19921;-66
2023/01/13 08:19:44;;;;;;;;;;;7.50;99.90;;;;;;5053978;28;20446;-66
2023/01/13 08:22:09;;;;;;;;;;;7.60;99.90;;;;;;5054393;28;19929;-67
2023/01/13 08:24:35;;;;;;;;;;;7.60;99.90;;;;;;5053269;28;20507;-65
2023/01/13 08:27:00;;;;;;;;;;;7.60;99.90;;;;;;5036706;28;20035;-65
2023/01/13 08:29:26;;;;;;;;;;;7.70;99.90;;;;;;5052670;28;20361;-65
2023/01/13 08:31:51;;;;;;;;;;;7.70;99.90;;;;;;5054507;28;19928;-69
2023/01/13 08:34:17;;;;;;;;;;;7.70;99.90;;;;;;5053606;28;20258;-67
2023/01/13 08:36:43;;;;;;;;;;;7.70;99.90;;;;;;5052827;28;19974;-65
2023/01/13 08:39:08;;;;;;;;;;;7.80;99.90;;;;;;5054601;28;19962;-65
2023/01/13 08:44:18;;;;;;;;;;;7.80;99.90;;;;;;5054291;28;19920;-67
2023/01/13 08:46:44;;;;;;;;;;;7.80;99.90;;;;;;5054420;28;20262;-65
2023/01/13 08:49:09;;;;;;;;;;;7.80;99.90;;;;;;5054307;28;20098;-66
2023/01/13 08:51:35;;;;;;;;;;;7.80;99.90;;;;;;5053703;28;19921;-65
2023/01/13 08:54:01;;;;;;;;;;;7.90;99.90;;;;;;5054230;28;19970;-64
2023/01/13 08:56:28;;;;;;;;;;;7.90;99.90;;;;;;5053690;28;19920;-64
2023/01/13 08:58:56;;;;;;;;;;;7.90;99.90;;;;;;5053916;28;20323;-64
2023/01/13 09:01:22;;;;;;;;;;;7.90;99.90;;;;;;5052915;28;20294;-66
2023/01/13 09:03:48;;;;;;;;;;;7.90;99.90;;;;;;5053075;28;19921;-64
2023/01/13 09:06:13;;;;;;;;;;;7.90;99.90;;;;;;5053905;28;19928;-65
2023/01/13 09:08:39;;;;;;;;;;;7.90;99.90;;;;;;5053691;28;20275;-65
2023/01/13 09:13:10;;;;;;;;;;;7.90;99.90;;;;;;5054040;28;20273;-65
2023/01/13 09:13:50;;;;;;;;;;;7.80;99.90;;;;;;5052670;28;20294;-66
2023/01/13 09:16:16;;;;;;;;;;;7.80;99.90;;;;;;5052858;28;19921;-66
2023/01/13 09:18:42;;;;;;;;;;;7.70;99.90;;;;;;5035679;28;19924;-66
2023/01/13 09:21:11;;;;;;;;;;;7.80;99.90;;;;;;5052538;28;20011;-67
2023/01/13 09:23:36;;;;;;;;;;;7.70;99.90;;;;;;5035817;28;19927;-66
2023/01/13 09:26:02;;;;;;;;;;;7.70;99.90;;;;;;5052158;28;20250;-67
2023/01/13 09:28:27;;;;;;;;;;;7.60;99.90;;;;;;5052064;28;19920;-68
2023/01/13 09:30:53;;;;;;;;;;;7.60;99.90;;;;;;5053447;28;19998;-68
2023/01/13 09:36:03;;;;;;;;;;;7.60;99.90;;;;;;5052110;28;19925;-67
2023/01/13 09:38:28;;;;;;;;;;;7.50;99.90;;;;;;5053142;28;19921;-67
2023/01/13 09:40:54;;;;;;;;;;;7.50;99.90;;;;;;5052293;28;19974;-66
2023/01/13 09:46:42;;;;;;;;;;;7.50;99.90;;;;;;5052013;28;19947;-67
2023/01/13 09:49:02;;;;;;;;;;;7.50;99.90;;;;;;5052127;28;19970;-68
2023/01/13 09:51:54;;;;;;;;;;;7.50;99.90;;;;;;5052990;28;20009;-68
2023/01/13 09:54:39;;;;;;;;;;;7.50;99.90;;;;;;5047656;28;19921;-67
2023/01/13 09:57:13;;;;;;;;;;;7.50;99.90;;;;;;5052983;28;19921;-67
2023/01/13 09:59:39;;;;;;;;;;;7.50;99.90;;;;;;5051552;28;19921;-68
2023/01/13 10:02:20;;;;;;;;;;;7.50;99.90;;;;;;5053066;28;19928;-68
2023/01/13 10:05:02;;;;;;;;;;;7.50;99.90;;;;;;5051349;28;19927;-68
2023/01/13 10:07:30;;;;;;;;;;;7.40;99.90;;;;;;5051310;28;19928;-68
2023/01/13 10:09:57;;;;;;;;;;;7.50;99.90;;;;;;5053047;28;20007;-68
2023/01/13 10:15:34;;;;;;;;;;;7.40;99.90;;;;;;5051805;28;19927;-67
2023/01/13 10:18:08;;;;;;;;;;;7.40;99.90;;;;;;5047608;28;19927;-68
2023/01/13 10:20:38;;;;;;;;;;;7.40;99.90;;;;;;5052485;28;19920;-70
2023/01/13 10:23:23;;;;;;;;;;;7.50;99.90;;;;;;5051613;28;19927;-67
2023/01/13 10:25:48;;;;;;;;;;;7.50;99.90;;;;;;5051667;28;19966;-68
2023/01/13 10:28:14;;;;;;;;;;;7.60;99.90;;;;;;5051869;28;19925;-66
2023/01/13 10:30:42;;;;;;;;;;;7.60;99.90;;;;;;5034141;28;19924;-66
2023/01/13 10:33:12;;;;;;;;;;;7.60;99.90;;;;;;5034694;28;19964;-66
2023/01/13 10:35:50;;;;;;;;;;;7.60;99.90;;;;;;5050860;28;19920;-67
2023/01/13 10:38:24;;;;;;;;;;;7.70;99.90;;;;;;5051023;28;19921;-67
2023/01/13 10:40:57;;;;;;;;;;;7.70;99.90;;;;;;5050988;28;20362;-67
2023/01/13 10:43:23;;;;;;;;;;;7.70;99.90;;;;;;5052376;28;19928;-67
2023/01/13 10:45:56;;;;;;;;;;;7.70;99.90;;;;;;5051984;28;19924;-67
2023/01/13 10:48:22;;;;;;;;;;;7.70;99.90;;;;;;5051291;28;19978;-66
2023/01/13 10:50:47;;;;;;;;;;;7.80;99.90;;;;;;5051032;28;19972;-65
2023/01/13 10:53:23;;;;;;;;;;;7.80;99.90;;;;;;5051364;28;20289;-67
2023/01/13 10:55:57;;;;;;;;;;;7.80;99.90;;;;;;5051114;28;19986;-67
2023/01/13 10:58:23;;;;;;;;;;;7.80;99.90;;;;;;5052786;28;20011;-68
2023/01/13 11:00:56;;;;;;;;;;;7.90;99.90;;;;;;5057546;28;20151;-68
2023/01/13 11:03:23;;;;;;;;;;;7.90;99.90;;;;;;5041467;28;19974;-67
2023/01/13 11:05:49;;;;;;;;;;;7.90;99.90;;;;;;5058833;28;20323;-68
2023/01/13 11:08:17;;;;;;;;;;;8.00;99.90;;;;;;5056976;28;19927;-66
2023/01/13 11:10:48;;;;;;;;;;;7.90;99.90;;;;;;5057406;28;19927;-67
2023/01/13 11:13:15;;;;;;;;;;;7.90;99.90;;;;;;5057535;28;20008;-68
2023/01/13 11:15:59;;;;;;;;;;;8.00;99.90;;;;;;5057236;28;19925;-68
2023/01/13 11:18:34;;;;;;;;;;;8.00;99.90;;;;;;5057406;28;19925;-68
2023/01/13 11:21:03;;;;;;;;;;;8.00;99.90;;;;;;5058540;28;19928;-67
2023/01/13 11:23:29;;;;;;;;;;;8.00;99.90;;;;;;5058704;28;19921;-67
2023/01/13 11:26:02;;;;;;;;;;;8.00;99.90;;;;;;5057247;28;20251;-67
2023/01/13 11:28:31;;;;;;;;;;;8.10;99.90;;;;;;5058712;28;19921;-67
2023/01/13 11:31:25;;;;;;;;;;;8.00;99.90;;;;;;5057763;28;19920;-67
2023/01/13 11:34:12;;;;;;;;;;;8.00;99.90;;;;;;5023601;28;19921;-67
2023/01/13 11:36:39;;;;;;;;;;;8.00;99.90;;;;;;5057466;28;19920;-67
2023/01/13 11:39:16;;;;;;;;;;;8.10;99.90;;;;;;5058465;28;19920;-66
2023/01/13 11:42:20;;;;;;;;;;;8.20;99.90;;;;;;5058359;28;19927;-68
2023/01/13 11:44:53;;;;;;;;;;;8.20;99.90;;;;;;5058257;28;19982;-66
2023/01/13 11:47:20;;;;;;;;;;;8.20;99.90;;;;;;5058273;28;20015;-67
2023/01/13 11:49:47;;;;;;;;;;;8.20;99.90;;;;;;5058005;28;19966;-66
2023/01/13 11:52:26;;;;;;;;;;;8.20;99.90;;;;;;5058177;28;20332;-66
2023/01/13 11:54:59;;;;;;;;;;;8.20;99.90;;;;;;5056898;28;20385;-66
2023/01/13 11:57:38;;;;;;;;;;;8.30;99.90;;;;;;5040400;28;20019;-68
2023/01/13 12:00:07;;;;;;;;;;;8.30;99.90;;;;;;5057698;28;19963;-67
2023/01/13 12:02:51;;;;;;;;;;;8.40;99.90;;;;;;5057448;28;19920;-68
2023/01/13 12:05:35;;;;;;;;;;;8.40;99.90;;;;;;5057183;28;20401;-68
2023/01/13 12:08:11;;;;;;;;;;;8.40;99.90;;;;;;5056481;28;19927;-68
2023/01/13 12:10:41;;;;;;;;;;;8.40;99.90;;;;;;5055887;28;19974;-68
2023/01/13 12:13:20;;;;;;;;;;;8.40;99.90;;;;;;5037414;28;19920;-68
2023/01/13 12:16:08;;;;;;;;;;;8.30;99.90;;;;;;5054098;28;19917;-68
2023/01/13 12:18:37;;;;;;;;;;;8.30;99.90;;;;;;5054843;28;19927;-68
2023/01/13 12:21:19;;;;;;;;;;;8.30;99.90;;;;;;5053830;28;19979;-68
2023/01/13 12:23:51;;;;;;;;;;;8.30;99.90;;;;;;5054153;28;19927;-68
2023/01/13 12:26:17;;;;;;;;;;;8.30;99.90;;;;;;5053919;28;19928;-69
2023/01/13 12:28:48;;;;;;;;;;;8.30;99.90;;;;;;5054867;28;19920;-68
2023/01/13 12:31:17;;;;;;;;;;;8.40;99.90;;;;;;5037086;28;19921;-68
2023/01/13 12:34:01;;;;;;;;;;;8.40;99.90;;;;;;5053823;28;19970;-68
2023/01/13 12:36:30;;;;;;;;;;;8.40;99.90;;;;;;5054956;28;19943;-68
2023/01/13 12:38:55;;;;;;;;;;;8.50;99.90;;;;;;5053563;28;19917;-68
2023/01/13 12:44:15;;;;;;;;;;;8.50;99.90;;;;;;5053641;28;19927;-68
2023/01/13 12:44:25;;;;;;;;;;;8.50;99.90;;;;;;5053391;28;19920;-68
2023/01/13 12:46:54;;;;;;;;;;;8.50;99.90;;;;;;5053387;28;19969;-69
2023/01/13 12:49:38;;;;;;;;;;;8.50;99.90;;;;;;5053482;28;20462;-68
2023/01/13 12:52:14;;;;;;;;;;;8.50;99.90;;;;;;5054124;28;19924;-68
2023/01/13 12:54:39;;;;;;;;;;;8.60;99.90;;;;;;5053089;28;19920;-68
2023/01/13 12:57:22;;;;;;;;;;;8.60;99.90;;;;;;5053329;28;19983;-68
2023/01/13 13:00:14;;;;;;;;;;;8.60;99.90;;;;;;5036867;28;19974;-68
2023/01/13 13:02:40;;;;;;;;;;;8.70;99.90;;;;;;5049416;28;19920;-69
2023/01/13 13:05:21;;;;;;;;;;;8.70;99.90;;;;;;5053115;28;19920;-68
2023/01/13 13:07:51;;;;;;;;;;;8.60;99.90;;;;;;5036328;28;20294;-68
2023/01/13 13:10:23;;;;;;;;;;;8.70;99.90;;;;;;5052855;28;19927;-68
2023/01/13 13:15:37;;;;;;;;;;;8.70;99.90;;;;;;5053017;28;19924;-68
2023/01/13 13:18:23;;;;;;;;;;;8.70;99.90;;;;;;5036131;28;19916;-68
2023/01/13 13:20:53;;;;;;;;;;;8.70;99.90;;;;;;5053028;28;19927;-67
2023/01/13 13:23:25;;;;;;;;;;;8.70;99.90;;;;;;5035154;28;20377;-68
2023/01/13 13:26:04;;;;;;;;;;;8.70;99.90;;;;;;5052886;28;19974;-68
2023/01/13 13:28:34;;;;;;;;;;;8.60;99.90;;;;;;5036099;28;19951;-68
2023/01/13 13:31:04;;;;;;;;;;;8.60;99.90;;;;;;5051879;28;19920;-68
2023/01/13 13:33:48;;;;;;;;;;;8.60;99.90;;;;;;5051928;28;20443;-67
2023/01/13 13:36:31;;;;;;;;;;;8.60;99.90;;;;;;5053181;28;20007;-67
2023/01/13 13:47:38;;;;;;;;;;;8.50;99.90;;;;;;5053422;28;19928;-68
2023/01/13 13:50:05;;;;;;;;;;;8.50;99.90;;;;;;5052150;28;20030;-68
2023/01/13 13:52:37;;;;;;;;;;;8.40;99.90;;;;;;5051952;28;19944;-68
2023/01/13 13:55:17;;;;;;;;;;;8.40;99.90;;;;;;5051482;28;19921;-67
2023/01/13 13:57:48;;;;;;;;;;;8.40;99.90;;;;;;5051818;28;19983;-67
2023/01/13 14:00:14;;;;;;;;;;;8.40;99.90;;;;;;5052853;28;19921;-68
2023/01/13 14:02:45;;;;;;;;;;;8.40;99.90;;;;;;5052095;28;19920;-67
2023/01/13 14:05:16;;;;;;;;;;;8.40;99.90;;;;;;5035013;28;19924;-66
2023/01/13 14:07:46;;;;;;;;;;;8.50;99.90;;;;;;5052415;28;19920;-67
2023/01/13 14:10:16;;;;;;;;;;;8.40;99.90;;;;;;5035331;28;19929;-67
2023/01/13 14:12:42;;;;;;;;;;;8.50;99.90;;;;;;5051637;28;20064;-67
2023/01/13 14:15:24;;;;;;;;;;;8.50;99.90;;;;;;5051682;28;20013;-68
2023/01/13 14:17:50;;;;;;;;;;;8.50;99.90;;;;;;5035160;28;19924;-68
2023/01/13 14:20:17;;;;;;;;;;;8.50;99.90;;;;;;5052430;28;19928;-68
2023/01/13 14:22:50;;;;;;;;;;;8.50;99.90;;;;;;5051494;28;19920;-67
2023/01/13 14:25:26;;;;;;;;;;;8.50;99.90;;;;;;5051201;28;19921;-67
2023/01/13 14:27:52;;;;;;;;;;;8.50;99.90;;;;;;5052626;28;20043;-67
2023/01/13 14:30:18;;;;;;;;;;;8.50;99.90;;;;;;5050843;28;20290;-67
2023/01/13 14:32:44;;;;;;;;;;;8.50;99.90;;;;;;5050843;28;19928;-67
2023/01/13 14:35:14;;;;;;;;;;;8.40;99.90;;;;;;5051796;28;19966;-68
2023/01/13 14:37:40;;;;;;;;;;;8.40;99.90;;;;;;5051421;28;19973;-66
2023/01/13 14:40:26;;;;;;;;;;;8.30;99.90;;;;;;5051062;28;19991;-67
2023/01/13 14:43:12;;;;;;;;;;;8.30;99.90;;;;;;5050964;28;19970;-68
2023/01/13 14:45:41;;;;;;;;;;;8.20;99.90;;;;;;5051412;28;19920;-68
2023/01/13 14:48:07;;;;;;;;;;;8.20;99.90;;;;;;5050895;28;20050;-70
2023/01/13 14:50:33;;;;;;;;;;;8.20;99.90;;;;;;5052299;28;19925;-68
2023/01/13 14:52:59;;;;;;;;;;;8.20;99.90;;;;;;5034885;28;19921;-66
2023/01/13 14:55:25;;;;;;;;;;;8.20;99.90;;;;;;5050790;28;20019;-68
2023/01/13 14:57:51;;;;;;;;;;;8.10;99.90;;;;;;5051351;28;20027;-67
2023/01/13 15:00:18;;;;;;;;;;;8.20;99.90;;;;;;5050936;28;20261;-67
2023/01/13 15:02:56;;;;;;;;;;;8.20;99.90;;;;;;5051143;28;20294;-67
2023/01/13 15:05:21;;;;;;;;;;;8.20;99.90;;;;;;5034449;28;19928;-68
2023/01/13 15:07:54;;;;;;;;;;;8.30;99.90;;;;;;5050578;28;20351;-68
2023/01/13 15:10:21;;;;;;;;;;;8.30;99.90;;;;;;5051700;28;20298;-67
2023/01/13 15:12:51;;;;;;;;;;;8.30;99.90;;;;;;5050829;28;20461;-66
2023/01/13 15:15:20;;;;;;;;;;;8.10;99.90;;;;;;5050886;28;19943;-67
2023/01/13 15:17:46;;;;;;;;;;;7.80;99.90;;;;;;5034367;28;19986;-68
2023/01/13 15:20:12;;;;;;;;;;;7.70;99.90;;;;;;5051918;28;19921;-68
2023/01/13 15:22:37;;;;;;;;;;;7.50;99.90;;;;;;5050793;28;19928;-68
2023/01/13 15:25:03;;;;;;;;;;;7.50;99.90;;;;;;5050667;28;19966;-67
2023/01/13 15:27:29;;;;;;;;;;;7.40;99.90;;;;;;5050726;28;19929;-68
2023/01/13 15:29:54;;;;;;;;;;;7.40;99.90;;;;;;5052001;28;19921;-68
2023/01/13 15:32:20;;;;;;;;;;;7.40;99.90;;;;;;5033775;28;19986;-67
2023/01/13 15:34:46;;;;;;;;;;;7.40;99.90;;;;;;5050398;28;20409;-67
2023/01/13 15:37:16;;;;;;;;;;;7.50;99.90;;;;;;5051964;28;19921;-67
2023/01/13 15:39:41;;;;;;;;;;;7.60;99.90;;;;;;5050455;28;19928;-67
2023/01/13 15:47:39;;;;;;;;;;;7.90;99.90;;;;;;5055736;28;19928;-68